Finnhawk — OJNL — position and weather

sailwx.info

Track history (hours):
 
Tides and Currents Weather Stations Pressure Air Temp Water Temp Dewpoint Dewpoint Depression Visibility Wind Speed Wind Dir Waves Ship Positions

Finnhawk

Last reported at 2016-Dec-11 05:33 UTC. Time now 2016-Dec-11 06:11 UTC.
Position N 53°43' W 000°14'.

Length 163 m; draft 7 m.

Type: Ship. MMSI: 230007000.

Date/timePositionNaut miles runAvg speedWind from/ knotsBaromVisibWave heightAir tempDewpointWater temp
2016-Dec-11 05:33N 53°43' W 000°14'1212.1
2016-Dec-11 04:34N 53°35' E 000°02'41717.2
2016-Dec-10 04:21N 57°41' E 009°58'1316.4
2016-Dec-10 03:34N 57°46' E 010°20'1616.2
2016-Dec-10 02:33N 57°47' E 010°50'1716.9
2016-Dec-10 01:34N 57°35' E 011°13'1817.7
2016-Dec-10 00:34N 57°21' E 011°31'1918.6
2016-Dec-09 23:33N 57°03' E 011°43'4418.4
2016-Dec-09 21:09N 56°22' E 012°13'1118.1
2016-Dec-09 20:34N 56°14' E 012°24'1717.3
2016-Dec-09 19:33N 55°59' E 012°42'1716.7
2016-Dec-09 18:34N 55°43' E 012°41'1110.9
2016-Dec-09 17:33N 55°32' E 012°43'1313.2
2016-Dec-09 16:33N 55°19' E 012°41'1716.6
2016-Dec-09 15:31N 55°15' E 013°10'1717.2
2016-Dec-09 14:33N 55°14' E 013°40'1717.4
2016-Dec-09 13:33N 55°14' E 014°10'1716.8
2016-Dec-09 12:33N 55°25' E 014°32'1717.0
2016-Dec-09 11:33N 55°35' E 014°56'  
2016-Dec-06 00:27N 59°33' E 021°24'1718.4
2016-Dec-05 23:32N 59°31' E 021°58'4318.5
2016-Dec-05 21:11N 59°39' E 023°22'8919.2
2016-Dec-05 16:33N 60°04' E 026°12'1919.1
2016-Dec-05 15:33N 60°19' E 026°36'1414.4
2016-Dec-05 14:33N 60°29' E 026°57'0 0.3
2016-Dec-05 13:33N 60°29' E 026°57'0 0.0
2016-Dec-05 12:33N 60°29' E 026°57'0 0.0
2016-Dec-05 11:33N 60°29' E 026°57'0 0.0
2016-Dec-05 10:33N 60°29' E 026°57'0 0.0
2016-Dec-05 09:33N 60°29' E 026°57'0 0.0
2016-Dec-05 08:33N 60°29' E 026°57'0 0.0
2016-Dec-05 07:33N 60°29' E 026°57'0 0.0
2016-Dec-05 06:33N 60°29' E 026°57'0 0.0
2016-Dec-05 05:33N 60°29' E 026°57'0 0.0
2016-Dec-05 04:33N 60°29' E 026°57'0 0.0
2016-Dec-05 03:33N 60°29' E 026°57'0 0.0
2016-Dec-05 02:33N 60°29' E 026°57'5 5.3
2016-Dec-05 01:33N 60°24' E 026°53'1616.4
2016-Dec-05 00:34N 60°15' E 026°27'2418.2
2016-Dec-04 23:13N 59°59' E 025°50'1218.5
2016-Dec-04 22:34N 59°58' E 025°25'1414.1
2016-Dec-04 21:33N 60°11' E 025°13'2 2.3
2016-Dec-04 20:33N 60°13' E 025°12'0 0.0
2016-Dec-04 19:33N 60°13' E 025°12'0 0.0
2016-Dec-04 18:33N 60°13' E 025°12'0 0.0
2016-Dec-04 17:33N 60°13' E 025°12'0 0.0
2016-Dec-04 16:33N 60°13' E 025°12'0 0.0
2016-Dec-04 15:33N 60°13' E 025°12'1010.2
2016-Dec-04 14:34N 60°03' E 025°08'2019.3
2016-Dec-04 13:30N 59°48' E 024°42'1919.5
2016-Dec-04 12:31N 59°41' E 024°05'1919.9
2016-Dec-04 11:32N 59°35' E 023°30'34218.8
2016-Dec-03 17:21N 55°42' E 015°40'1519.5
2016-Dec-03 16:33N 55°35' E 015°16'2019.5
2016-Dec-03 15:33N 55°25' E 014°46'1919.1
2016-Dec-03 14:33N 55°11' E 014°22'2019.2
2016-Dec-03 13:32N 55°11' E 013°48'1919.3
2016-Dec-03 12:34N 55°13' E 013°15'1919.0
2016-Dec-03 11:33N 55°17' E 012°43'1514.8
2016-Dec-03 10:33N 55°32' E 012°42'1414.3
2016-Dec-03 09:33N 55°46' E 012°41'1817.8
2016-Dec-03 08:34N 56°04' E 012°38'6619.1
2016-Dec-03 05:06N 57°01' E 011°40'1119.7
2016-Dec-03 04:33N 57°11' E 011°33'2019.6
2016-Dec-03 03:33N 57°29' E 011°19'2019.7
2016-Dec-03 02:33N 57°43' E 010°52'1918.2
2016-Dec-03 01:31N 57°44' E 010°17'34917.4
2016-Dec-02 05:30N 53°00' E 004°20'1918.5
2016-Dec-02 04:30N 52°44' E 004°06'2318.9
2016-Dec-02 03:16N 52°27' E 003°39'3618.8
2016-Dec-02 01:22N 51°53' E 003°21'1214.7
2016-Dec-02 00:33N 51°41' E 003°18'1615.9
2016-Dec-01 23:34N 51°27' E 003°31'1110.6
2016-Dec-01 22:33N 51°22' E 003°46'1111.3
2016-Dec-01 21:33N 51°22' E 004°04'9 9.1
2016-Dec-01 20:33N 51°17' E 004°16'1 0.8
2016-Dec-01 19:33N 51°17' E 004°15'1 1.0
2016-Dec-01 18:31N 51°17' E 004°13'0 0.0
2016-Dec-01 17:19N 51°17' E 004°13'0 0.0
2016-Dec-01 16:31N 51°17' E 004°13'0 0.0
2016-Dec-01 15:28N 51°17' E 004°13'0 0.0
2016-Dec-01 14:28N 51°17' E 004°13'0 0.0
2016-Dec-01 13:22N 51°17' E 004°13'0 0.0
2016-Dec-01 12:28N 51°17' E 004°13'1 1.0
2016-Dec-01 11:33N 51°16' E 004°15'1 1.4
2016-Dec-01 10:33N 51°18' E 004°16'8 8.0
2016-Dec-01 09:34N 51°22' E 004°05'9 9.0
2016-Dec-01 08:34N 51°21' E 003°51'1313.0
2016-Dec-01 07:34N 51°27' E 003°33'1716.3
2016-Dec-01 06:32N 51°41' E 003°18'  
Track history (hours):
 
Tides and Currents Weather Stations Pressure Air Temp Water Temp Dewpoint Dewpoint Depression Visibility Wind Speed Wind Dir Waves Ship Positions

Finnhawk

Last reported at 2016-Dec-11 05:33 UTC. Time now 2016-Dec-11 06:11 UTC.
Position N 53°43' W 000°14'.

Length 163 m; draft 7 m.

Type: Ship. MMSI: 230007000.

Date/timePositionNaut miles runAvg speedWind from/ knotsBaromVisibWave heightAir tempDewpointWater temp
2016-Dec-11 05:33N 53°43' W 000°14'1212.1
2016-Dec-11 04:34N 53°35' E 000°02'41717.2
2016-Dec-10 04:21N 57°41' E 009°58'1316.4
2016-Dec-10 03:34N 57°46' E 010°20'1616.2
2016-Dec-10 02:33N 57°47' E 010°50'1716.9
2016-Dec-10 01:34N 57°35' E 011°13'1817.7
2016-Dec-10 00:34N 57°21' E 011°31'1918.6
2016-Dec-09 23:33N 57°03' E 011°43'4418.4
2016-Dec-09 21:09N 56°22' E 012°13'1118.1
2016-Dec-09 20:34N 56°14' E 012°24'1717.3
2016-Dec-09 19:33N 55°59' E 012°42'1716.7
2016-Dec-09 18:34N 55°43' E 012°41'1110.9
2016-Dec-09 17:33N 55°32' E 012°43'1313.2
2016-Dec-09 16:33N 55°19' E 012°41'1716.6
2016-Dec-09 15:31N 55°15' E 013°10'1717.2
2016-Dec-09 14:33N 55°14' E 013°40'1717.4
2016-Dec-09 13:33N 55°14' E 014°10'1716.8
2016-Dec-09 12:33N 55°25' E 014°32'1717.0
2016-Dec-09 11:33N 55°35' E 014°56'  
2016-Dec-06 00:27N 59°33' E 021°24'1718.4
2016-Dec-05 23:32N 59°31' E 021°58'4318.5
2016-Dec-05 21:11N 59°39' E 023°22'8919.2
2016-Dec-05 16:33N 60°04' E 026°12'1919.1
2016-Dec-05 15:33N 60°19' E 026°36'1414.4
2016-Dec-05 14:33N 60°29' E 026°57'0 0.3
2016-Dec-05 13:33N 60°29' E 026°57'0 0.0
2016-Dec-05 12:33N 60°29' E 026°57'0 0.0
2016-Dec-05 11:33N 60°29' E 026°57'0 0.0
2016-Dec-05 10:33N 60°29' E 026°57'0 0.0
2016-Dec-05 09:33N 60°29' E 026°57'0 0.0
2016-Dec-05 08:33N 60°29' E 026°57'0 0.0
2016-Dec-05 07:33N 60°29' E 026°57'0 0.0
2016-Dec-05 06:33N 60°29' E 026°57'0 0.0
2016-Dec-05 05:33N 60°29' E 026°57'0 0.0
2016-Dec-05 04:33N 60°29' E 026°57'0 0.0
2016-Dec-05 03:33N 60°29' E 026°57'0 0.0
2016-Dec-05 02:33N 60°29' E 026°57'5 5.3
2016-Dec-05 01:33N 60°24' E 026°53'1616.4
2016-Dec-05 00:34N 60°15' E 026°27'2418.2
2016-Dec-04 23:13N 59°59' E 025°50'1218.5
2016-Dec-04 22:34N 59°58' E 025°25'1414.1
2016-Dec-04 21:33N 60°11' E 025°13'2 2.3
2016-Dec-04 20:33N 60°13' E 025°12'0 0.0
2016-Dec-04 19:33N 60°13' E 025°12'0 0.0
2016-Dec-04 18:33N 60°13' E 025°12'0 0.0
2016-Dec-04 17:33N 60°13' E 025°12'0 0.0
2016-Dec-04 16:33N 60°13' E 025°12'0 0.0
2016-Dec-04 15:33N 60°13' E 025°12'1010.2
2016-Dec-04 14:34N 60°03' E 025°08'2019.3
2016-Dec-04 13:30N 59°48' E 024°42'1919.5
2016-Dec-04 12:31N 59°41' E 024°05'1919.9
2016-Dec-04 11:32N 59°35' E 023°30'34218.8
2016-Dec-03 17:21N 55°42' E 015°40'1519.5
2016-Dec-03 16:33N 55°35' E 015°16'2019.5
2016-Dec-03 15:33N 55°25' E 014°46'1919.1
2016-Dec-03 14:33N 55°11' E 014°22'2019.2
2016-Dec-03 13:32N 55°11' E 013°48'1919.3
2016-Dec-03 12:34N 55°13' E 013°15'1919.0
2016-Dec-03 11:33N 55°17' E 012°43'1514.8
2016-Dec-03 10:33N 55°32' E 012°42'1414.3
2016-Dec-03 09:33N 55°46' E 012°41'1817.8
2016-Dec-03 08:34N 56°04' E 012°38'6619.1
2016-Dec-03 05:06N 57°01' E 011°40'1119.7
2016-Dec-03 04:33N 57°11' E 011°33'2019.6
2016-Dec-03 03:33N 57°29' E 011°19'2019.7
2016-Dec-03 02:33N 57°43' E 010°52'1918.2
2016-Dec-03 01:31N 57°44' E 010°17'34917.4
2016-Dec-02 05:30N 53°00' E 004°20'1918.5
2016-Dec-02 04:30N 52°44' E 004°06'2318.9
2016-Dec-02 03:16N 52°27' E 003°39'3618.8
2016-Dec-02 01:22N 51°53' E 003°21'1214.7
2016-Dec-02 00:33N 51°41' E 003°18'1615.9
2016-Dec-01 23:34N 51°27' E 003°31'1110.6
2016-Dec-01 22:33N 51°22' E 003°46'1111.3
2016-Dec-01 21:33N 51°22' E 004°04'9 9.1
2016-Dec-01 20:33N 51°17' E 004°16'1 0.8
2016-Dec-01 19:33N 51°17' E 004°15'1 1.0
2016-Dec-01 18:31N 51°17' E 004°13'0 0.0
2016-Dec-01 17:19N 51°17' E 004°13'0 0.0
2016-Dec-01 16:31N 51°17' E 004°13'0 0.0
2016-Dec-01 15:28N 51°17' E 004°13'0 0.0
2016-Dec-01 14:28N 51°17' E 004°13'0 0.0
2016-Dec-01 13:22N 51°17' E 004°13'0 0.0
2016-Dec-01 12:28N 51°17' E 004°13'1 1.0
2016-Dec-01 11:33N 51°16' E 004°15'1 1.4
2016-Dec-01 10:33N 51°18' E 004°16'8 8.0
2016-Dec-01 09:34N 51°22' E 004°05'9 9.0
2016-Dec-01 08:34N 51°21' E 003°51'1313.0
2016-Dec-01 07:34N 51°27' E 003°33'1716.3
2016-Dec-01 06:32N 51°41' E 003°18'  

Dump ship's entire track history